METAR Data
IDs: Format: Raw Decoded Include TAF

Data at: 1527 UTC 25 Jan 2020

METAR for:KCGS (College Park Arpt, MD, US)
Text:KCGS 251508Z AUTO 22003KT 10SM OVC012 08/07 A2986 RMK AO1 T00820071
Temperature: 8.2°C ( 47°F)
Dewpoint: 7.1°C ( 45°F) [RH = 93%]
Pressure (altimeter):29.86 inches Hg (1011.3 mb)
Winds:from the SW (220 degrees) at 3 MPH (3 knots; 1.5 m/s)
Visibility:10 or more sm (16+ km)
Ceiling:1200 feet AGL
Clouds: overcast cloud deck at 1200 feet AGL
QC Flag:automated observation with no human augmentation